Time;durP1;ratioP1;P1;durP2;ratioP2;P2;SDS_P1;SDS_P2;PMS_P1;PMS_P2;Temp;Humidity;BMP_temperature;BMP_pressure;BME280_temperature;BME280_humidity;BME280_pressure;Samples;Min_cycle;Max_cycle;Signal;HPM_P1;HPM_P2
2022/06/11 00:01:01;;;;;;;2.63;1.50;;;15.40;61.90;;;;;;5013005;28;20099;-74
2022/06/11 00:03:26;;;;;;;2.53;1.50;;;15.40;62.10;;;;;;5001887;28;20053;-74
2022/06/11 00:05:52;;;;;;;3.85;1.50;;;15.40;62.20;;;;;;5028391;28;20124;-74
2022/06/11 00:08:18;;;;;;;1.90;1.50;;;15.30;62.30;;;;;;4996249;28;20441;-74
2022/06/11 00:10:44;;;;;;;3.20;1.95;;;15.30;62.30;;;;;;4995474;28;20081;-74
2022/06/11 00:13:10;;;;;;;1.52;1.42;;;15.30;62.60;;;;;;5013166;28;20037;-74
2022/06/11 00:15:35;;;;;;;3.15;1.80;;;15.20;62.60;;;;;;5011687;28;20037;-73
2022/06/11 00:18:02;;;;;;;2.92;1.70;;;15.20;62.70;;;;;;5003011;28;20060;-73
2022/06/11 00:20:28;;;;;;;4.28;1.80;;;15.20;62.80;;;;;;4982518;28;20809;-74
2022/06/11 00:22:53;;;;;;;2.50;1.67;;;15.10;62.90;;;;;;4984294;28;20030;-73
2022/06/11 00:25:19;;;;;;;3.92;1.65;;;15.10;63.10;;;;;;4981683;28;20054;-74
2022/06/11 00:27:45;;;;;;;1.63;1.52;;;15.10;63.20;;;;;;5012476;28;20025;-74
2022/06/11 00:30:11;;;;;;;1.90;1.60;;;15.00;63.30;;;;;;5030298;28;20034;-74
2022/06/11 00:32:38;;;;;;;2.00;1.35;;;15.00;63.30;;;;;;4994718;28;20042;-74
2022/06/11 00:35:04;;;;;;;3.08;1.70;;;15.00;63.50;;;;;;5005936;28;20037;-73
2022/06/11 00:37:30;;;;;;;4.07;1.42;;;14.90;63.60;;;;;;5012547;28;20437;-73
2022/06/11 00:39:56;;;;;;;1.58;1.48;;;14.90;63.60;;;;;;5016000;28;20087;-74
2022/06/11 00:42:24;;;;;;;4.10;1.80;;;14.90;63.70;;;;;;5004408;28;20087;-74
2022/06/11 00:45:17;;;;;;;4.03;1.50;;;14.80;63.80;;;;;;5003259;28;20048;-74
2022/06/11 00:47:44;;;;;;;2.13;1.50;;;14.80;64.30;;;;;;5001389;28;20030;-74
2022/06/11 00:50:25;;;;;;;2.92;2.00;;;14.80;64.00;;;;;;5014598;28;20025;-74
2022/06/11 00:52:50;;;;;;;2.65;1.60;;;14.80;64.50;;;;;;5033789;28;20497;-74
2022/06/11 00:55:22;;;;;;;4.80;1.45;;;14.70;64.10;;;;;;4993455;28;20038;-74
2022/06/11 00:57:54;;;;;;;3.55;1.60;;;14.70;64.40;;;;;;5000055;28;20422;-74
2022/06/11 01:00:26;;;;;;;2.58;1.50;;;14.60;64.50;;;;;;4985649;28;20029;-74
2022/06/11 01:02:52;;;;;;;2.53;1.52;;;14.60;64.50;;;;;;4984524;28;20146;-74
2022/06/11 01:05:20;;;;;;;3.15;1.63;;;14.60;64.50;;;;;;4998536;28;20605;-73
2022/06/11 01:07:56;;;;;;;3.30;1.98;;;14.60;65.50;;;;;;5015555;28;20105;-73
2022/06/11 01:10:40;;;;;;;3.05;2.08;;;14.50;64.90;;;;;;5021860;28;20124;-75
2022/06/11 01:13:39;;;;;;;2.05;1.85;;;14.50;65.10;;;;;;5033250;28;20075;-73
2022/06/11 01:16:27;;;;;;;1.58;1.48;;;14.50;65.40;;;;;;5007976;28;20033;-74
2022/06/11 01:19:21;;;;;;;3.70;2.13;;;14.50;65.40;;;;;;4981843;28;20107;-74
2022/06/11 01:22:09;;;;;;;2.75;2.00;;;14.40;65.50;;;;;;4978577;28;20681;-75
2022/06/11 01:24:55;;;;;;;2.33;2.13;;;14.40;65.60;;;;;;5003417;28;20758;-74
2022/06/11 01:27:39;;;;;;;3.28;1.95;;;14.40;65.80;;;;;;5017581;28;20037;-74
2022/06/11 01:30:06;;;;;;;2.60;1.80;;;14.30;65.50;;;;;;4998428;28;20088;-74
2022/06/11 01:33:07;;;;;;;3.40;1.90;;;14.30;65.40;;;;;;5022507;28;20044;-73
2022/06/11 01:35:39;;;;;;;4.28;1.92;;;14.20;65.70;;;;;;4991245;28;20033;-72
2022/06/11 01:38:17;;;;;;;5.63;2.35;;;14.20;65.60;;;;;;5009198;28;20040;-73
2022/06/11 01:41:06;;;;;;;2.47;1.70;;;14.20;66.00;;;;;;4989037;28;20025;-73
2022/06/11 01:43:37;;;;;;;4.78;1.80;;;14.20;66.00;;;;;;4952522;28;20041;-73
2022/06/11 01:46:12;;;;;;;3.05;1.60;;;14.10;66.00;;;;;;4999631;28;20032;-74
2022/06/11 01:48:55;;;;;;;2.17;1.80;;;14.10;66.10;;;;;;4998716;28;20033;-73
2022/06/11 01:51:27;;;;;;;2.38;1.70;;;14.10;66.50;;;;;;5000773;28;20037;-73
2022/06/11 01:53:52;;;;;;;;;;;14.00;66.20;;;;;;5008466;28;20073;-74
2022/06/11 01:56:57;;;;;;;3.67;1.65;;;14.00;66.00;;;;;;5028979;28;20010;-73
2022/06/11 01:59:37;;;;;;;2.53;1.70;;;14.00;66.30;;;;;;4977836;28;20038;-73
2022/06/11 02:02:31;;;;;;;3.00;2.00;;;14.00;66.30;;;;;;5014063;28;20045;-74
2022/06/11 02:05:17;;;;;;;2.85;1.60;;;13.90;66.70;;;;;;5002242;28;20037;-73
2022/06/11 02:08:03;;;;;;;2.88;2.10;;;13.90;66.90;;;;;;4973720;28;20037;-73
2022/06/11 02:10:52;;;;;;;2.90;1.98;;;13.90;66.50;;;;;;5011905;28;20040;-74
2022/06/11 02:13:24;;;;;;;6.25;1.90;;;13.80;67.00;;;;;;5016774;28;20124;-75
2022/06/11 02:15:56;;;;;;;2.95;1.85;;;13.80;66.80;;;;;;5033604;28;20144;-74
2022/06/11 02:18:22;;;;;;;3.58;1.55;;;13.80;66.90;;;;;;4993154;28;20037;-74
2022/06/11 02:21:02;;;;;;;4.13;1.70;;;13.80;66.90;;;;;;4995784;28;20044;-74
2022/06/11 02:23:32;;;;;;;3.28;1.80;;;13.70;67.20;;;;;;5028258;28;20037;-72
2022/06/11 02:25:59;;;;;;;2.33;1.90;;;13.70;67.10;;;;;;5012835;28;20049;-73
2022/06/11 02:28:28;;;;;;;3.25;1.98;;;13.70;67.10;;;;;;4996948;28;20114;-73
2022/06/11 02:30:54;;;;;;;2.70;1.90;;;13.70;67.30;;;;;;5015178;28;20061;-74
2022/06/11 02:33:20;;;;;;;4.55;2.10;;;13.60;67.20;;;;;;4987066;28;20042;-74
2022/06/11 02:36:19;;;;;;;2.22;1.70;;;13.60;67.60;;;;;;5015528;28;20080;-73
2022/06/11 02:38:45;;;;;;;2.72;1.92;;;13.60;67.90;;;;;;4941506;28;20038;-75
2022/06/11 02:41:19;;;;;;;2.38;1.92;;;13.50;67.50;;;;;;5011522;28;20735;-73
2022/06/11 02:43:45;;;;;;;2.33;2.00;;;13.50;67.70;;;;;;5001306;28;20045;-74
2022/06/11 02:48:55;;;;;;;1.90;1.80;;;13.50;67.90;;;;;;4988390;28;20084;-73
2022/06/11 02:51:21;;;;;;;2.05;1.67;;;13.40;67.80;;;;;;5013077;28;20044;-74
2022/06/11 02:53:46;;;;;;;2.63;1.80;;;13.40;68.00;;;;;;5011158;28;20046;-74
2022/06/11 02:56:13;;;;;;;3.83;2.03;;;13.40;68.10;;;;;;5012152;28;20038;-73
2022/06/11 02:58:39;;;;;;;2.80;2.10;;;13.30;68.20;;;;;;4999949;28;20048;-73
2022/06/11 03:01:05;;;;;;;5.57;1.98;;;13.30;68.30;;;;;;4992021;28;20040;-74
2022/06/11 03:03:30;;;;;;;4.03;1.90;;;13.30;68.40;;;;;;5014900;28;20037;-73
2022/06/11 03:05:58;;;;;;;3.88;1.92;;;13.30;68.30;;;;;;5016526;28;20037;-73
2022/06/11 03:08:23;;;;;;;2.25;1.80;;;13.30;68.50;;;;;;4995870;28;20037;-73
2022/06/11 03:10:54;;;;;;;2.42;1.92;;;13.20;68.50;;;;;;5003057;28;20117;-73
2022/06/11 03:13:20;;;;;;;4.10;2.00;;;13.20;68.50;;;;;;5007229;28;20136;-74
2022/06/11 03:15:46;;;;;;;3.13;2.60;;;13.10;68.60;;;;;;5008242;28;20694;-74
2022/06/11 03:18:12;;;;;;;2.17;1.80;;;13.20;68.70;;;;;;4995199;28;20038;-73
2022/06/11 03:20:37;;;;;;;1.95;1.85;;;13.10;68.70;;;;;;5013612;28;20100;-72
2022/06/11 03:23:03;;;;;;;2.05;1.83;;;13.10;68.90;;;;;;5028980;28;20390;-72
2022/06/11 03:25:28;;;;;;;4.32;2.22;;;13.10;69.10;;;;;;5008094;28;20049;-73
2022/06/11 03:27:54;;;;;;;3.15;2.22;;;13.00;69.10;;;;;;4999012;28;20025;-73
2022/06/11 03:30:19;;;;;;;6.50;1.88;;;13.00;69.20;;;;;;5014725;28;20062;-72
2022/06/11 03:32:45;;;;;;;2.00;1.85;;;13.00;69.30;;;;;;4975167;28;20084;-72
2022/06/11 03:35:11;;;;;;;3.80;2.42;;;13.00;69.30;;;;;;5008510;28;20029;-72
2022/06/11 03:37:36;;;;;;;3.78;2.00;;;13.00;69.30;;;;;;5030585;28;20091;-72
2022/06/11 03:40:02;;;;;;;5.55;2.30;;;13.00;69.40;;;;;;5028843;28;20026;-73
2022/06/11 03:42:28;;;;;;;2.70;1.98;;;12.90;69.50;;;;;;5001538;28;20033;-73
2022/06/11 03:44:54;;;;;;;3.55;2.40;;;12.90;69.60;;;;;;5011761;28;20095;-73
2022/06/11 03:47:20;;;;;;;3.38;2.35;;;12.90;69.70;;;;;;5000676;28;20063;-73
2022/06/11 03:49:45;;;;;;;2.13;1.95;;;12.90;69.80;;;;;;4989523;28;20494;-73
2022/06/11 03:52:11;;;;;;;2.83;1.77;;;12.80;69.90;;;;;;5016358;28;20029;-73
2022/06/11 03:54:37;;;;;;;2.17;1.98;;;12.80;69.90;;;;;;5007447;28;20041;-73
2022/06/11 03:57:03;;;;;;;2.72;2.00;;;12.80;69.90;;;;;;5025431;28;20041;-72
2022/06/11 03:59:29;;;;;;;2.33;1.80;;;12.80;70.00;;;;;;5001813;28;20505;-72
2022/06/11 04:01:55;;;;;;;2.60;2.10;;;12.80;70.00;;;;;;5018994;28;20125;-73
2022/06/11 04:04:21;;;;;;;3.47;2.08;;;12.80;70.20;;;;;;4996427;28;20038;-72
2022/06/11 04:06:50;;;;;;;4.03;2.58;;;12.80;70.30;;;;;;5012938;28;20123;-72
2022/06/11 04:09:18;;;;;;;2.97;2.38;;;12.80;70.50;;;;;;5003184;28;20120;-72
2022/06/11 04:11:44;;;;;;;2.95;2.40;;;12.80;70.50;;;;;;4994373;28;20074;-73
2022/06/11 04:14:10;;;;;;;3.30;1.95;;;12.80;70.50;;;;;;4997462;28;20061;-73
2022/06/11 04:16:39;;;;;;;3.22;2.30;;;12.80;70.60;;;;;;4988011;28;20678;-73
2022/06/11 04:19:06;;;;;;;2.95;2.17;;;12.80;70.70;;;;;;4977987;28;20033;-73
2022/06/11 04:21:32;;;;;;;2.70;2.17;;;12.80;70.80;;;;;;5015380;28;20053;-73
2022/06/11 04:23:58;;;;;;;5.10;2.20;;;12.80;70.90;;;;;;4998610;28;20034;-73
2022/06/11 04:26:40;;;;;;;3.72;2.60;;;12.90;71.00;;;;;;5011119;28;20041;-74
2022/06/11 04:29:06;;;;;;;3.25;2.50;;;12.90;71.10;;;;;;4994020;28;20048;-72
2022/06/11 04:31:32;;;;;;;2.08;1.95;;;12.90;71.10;;;;;;4989131;28;20147;-73
2022/06/11 04:33:58;;;;;;;3.17;2.60;;;12.90;71.20;;;;;;4992425;28;20089;-73
2022/06/11 04:36:25;;;;;;;3.15;2.10;;;13.00;71.30;;;;;;5029748;28;20112;-72
2022/06/11 04:38:51;;;;;;;3.05;2.05;;;13.00;71.50;;;;;;5003793;28;20044;-72
2022/06/11 04:41:16;;;;;;;2.50;2.05;;;13.00;71.50;;;;;;4994096;28;20034;-73
2022/06/11 04:43:42;;;;;;;2.20;1.95;;;13.00;71.50;;;;;;4998153;28;20041;-73
2022/06/11 04:46:08;;;;;;;2.55;2.22;;;13.10;71.50;;;;;;4992546;28;20079;-74
2022/06/11 04:48:34;;;;;;;4.15;2.20;;;13.10;71.50;;;;;;5012921;28;20042;-74
2022/06/11 04:50:59;;;;;;;2.67;2.13;;;13.10;71.70;;;;;;4989190;28;20046;-73
2022/06/11 04:53:25;;;;;;;3.75;2.10;;;13.20;71.70;;;;;;4996696;28;20046;-73
2022/06/11 04:55:51;;;;;;;3.22;2.45;;;13.20;71.70;;;;;;4974824;28;20065;-73
2022/06/11 04:58:17;;;;;;;4.75;2.67;;;13.20;71.80;;;;;;4994077;28;20622;-73
2022/06/11 05:00:42;;;;;;;3.80;2.55;;;13.30;72.00;;;;;;5016014;28;20117;-73
2022/06/11 05:03:08;;;;;;;2.65;2.40;;;13.30;72.00;;;;;;5005262;28;20117;-73
2022/06/11 05:05:33;;;;;;;4.30;2.63;;;13.40;72.30;;;;;;4994336;28;20171;-73
2022/06/11 05:07:59;;;;;;;5.82;3.28;;;13.40;72.40;;;;;;5016334;28;20116;-73
2022/06/11 05:10:26;;;;;;;3.67;2.60;;;13.50;72.50;;;;;;5033151;28;20060;-73
2022/06/11 05:12:52;;;;;;;4.35;2.80;;;13.50;72.70;;;;;;5016698;28;20064;-72
2022/06/11 05:15:17;;;;;;;6.32;3.00;;;13.60;72.90;;;;;;5019585;28;20705;-72
2022/06/11 05:17:43;;;;;;;5.25;3.13;;;13.60;72.90;;;;;;5010311;28;20030;-72
2022/06/11 05:20:09;;;;;;;4.38;2.55;;;13.70;73.00;;;;;;5004683;28;20665;-71
2022/06/11 05:22:35;;;;;;;5.03;2.72;;;13.70;73.40;;;;;;5004627;28;20079;-72
2022/06/11 05:25:01;;;;;;;4.53;3.13;;;13.80;73.60;;;;;;5011564;28;20041;-73
2022/06/11 05:27:26;;;;;;;6.18;3.08;;;13.90;73.60;;;;;;4986030;28;20041;-73
2022/06/11 05:30:15;;;;;;;3.38;2.92;;;14.00;73.70;;;;;;4967094;28;20037;-74
2022/06/11 05:32:41;;;;;;;3.88;3.00;;;14.00;74.50;;;;;;4959679;28;20553;-72
2022/06/11 05:35:08;;;;;;;3.40;3.10;;;14.10;73.60;;;;;;5033195;28;20033;-72
2022/06/11 05:37:34;;;;;;;3.72;2.88;;;14.20;73.90;;;;;;5019717;28;20026;-73
2022/06/11 05:39:59;;;;;;;4.38;3.10;;;14.30;74.00;;;;;;5030914;28;20064;-72
2022/06/11 05:42:25;;;;;;;7.50;3.60;;;14.40;73.90;;;;;;5018903;28;20589;-72
2022/06/11 05:44:51;;;;;;;3.35;3.05;;;14.40;73.70;;;;;;4997522;28;20244;-72
2022/06/11 05:47:18;;;;;;;5.63;2.85;;;14.50;73.80;;;;;;4994715;28;20774;-73
2022/06/11 05:49:46;;;;;;;5.65;3.28;;;14.50;73.90;;;;;;5004567;28;20038;-73
2022/06/11 05:52:15;;;;;;;4.07;2.90;;;14.60;73.70;;;;;;4986117;28;20033;-73
2022/06/11 05:54:41;;;;;;;8.52;3.47;;;14.70;74.70;;;;;;5034206;28;20041;-72
2022/06/11 05:57:07;;;;;;;6.90;2.70;;;14.80;73.70;;;;;;5019027;28;20026;-72
2022/06/11 05:59:39;;;;;;;4.18;2.88;;;14.80;73.60;;;;;;5019810;28;20399;-74
2022/06/11 06:02:08;;;;;;;5.32;3.20;;;14.90;73.60;;;;;;5005619;28;20063;-74
2022/06/11 06:04:34;;;;;;;12.95;3.50;;;15.10;73.60;;;;;;5008399;28;20624;-73
2022/06/11 06:07:00;;;;;;;4.18;2.95;;;15.20;73.40;;;;;;5004133;28;20512;-73
2022/06/11 06:09:25;;;;;;;4.93;2.80;;;15.30;73.30;;;;;;4994493;28;20041;-72
2022/06/11 06:11:51;;;;;;;3.30;3.00;;;15.40;73.20;;;;;;5017405;28;20033;-73
2022/06/11 06:14:16;;;;;;;6.63;3.92;;;15.50;73.20;;;;;;5023366;28;20045;-73
2022/06/11 06:16:42;;;;;;;4.05;3.00;;;15.60;73.10;;;;;;4988459;28;20037;-73
2022/06/11 06:19:08;;;;;;;6.35;3.33;;;15.70;72.90;;;;;;5018098;28;20036;-73
2022/06/11 06:21:34;;;;;;;6.13;3.20;;;15.70;72.80;;;;;;5019860;28;20045;-72
2022/06/11 06:24:00;;;;;;;5.65;3.03;;;15.90;72.80;;;;;;5010640;28;20657;-73
2022/06/11 06:26:25;;;;;;;4.60;3.20;;;16.00;72.70;;;;;;5017881;28;20044;-73
2022/06/11 06:28:51;;;;;;;4.50;2.90;;;16.10;72.40;;;;;;5022705;28;20088;-73
2022/06/11 06:31:17;;;;;;;5.85;2.75;;;16.20;72.20;;;;;;5026961;28;20756;-74
2022/06/11 06:33:42;;;;;;;4.43;2.60;;;16.30;72.10;;;;;;5019522;28;20061;-73
2022/06/11 06:36:08;;;;;;;4.43;2.60;;;16.40;71.90;;;;;;5003810;28;20033;-73
2022/06/11 06:38:34;;;;;;;5.00;2.30;;;16.50;71.60;;;;;;4996519;28;20091;-71
2022/06/11 06:41:00;;;;;;;6.18;2.67;;;16.60;71.40;;;;;;5020794;28;20056;-74
2022/06/11 06:43:25;;;;;;;4.10;2.60;;;16.60;71.20;;;;;;5019498;28;20044;-73
2022/06/11 06:45:51;;;;;;;6.55;2.85;;;16.70;71.10;;;;;;5034656;28;20449;-73
2022/06/11 06:48:17;;;;;;;3.15;2.85;;;16.80;71.10;;;;;;5007721;28;20041;-73
2022/06/11 06:50:42;;;;;;;5.32;3.03;;;16.90;70.80;;;;;;5016639;28;20536;-73
2022/06/11 06:53:08;;;;;;;7.50;3.30;;;17.10;70.70;;;;;;5020985;28;20167;-74
2022/06/11 06:55:34;;;;;;;6.05;3.03;;;17.20;70.40;;;;;;5007267;28;20029;-74
2022/06/11 06:57:59;;;;;;;6.15;3.08;;;17.40;70.20;;;;;;5018643;28;20044;-73
2022/06/11 07:00:25;;;;;;;4.75;2.92;;;17.60;70.00;;;;;;5016495;28;20040;-73
2022/06/11 07:02:53;;;;;;;6.28;3.03;;;17.80;69.70;;;;;;5009893;28;20108;-73
2022/06/11 07:05:19;;;;;;;9.80;3.55;;;17.90;69.40;;;;;;4990468;28;20060;-73
2022/06/11 07:07:47;;;;;;;6.15;3.50;;;18.00;69.20;;;;;;5020588;28;20034;-74
2022/06/11 07:10:13;;;;;;;7.68;3.05;;;18.10;68.90;;;;;;5026275;28;20437;-73
2022/06/11 07:12:38;;;;;;;4.43;3.28;;;18.20;68.60;;;;;;4991685;28;20663;-74
2022/06/11 07:15:04;;;;;;;6.93;3.00;;;18.40;68.40;;;;;;4973562;28;20101;-74
2022/06/11 07:17:33;;;;;;;4.68;3.20;;;18.50;68.20;;;;;;5015000;28;20091;-74
2022/06/11 07:20:03;;;;;;;6.95;3.33;;;18.70;68.00;;;;;;5007425;28;20045;-74
2022/06/11 07:22:35;;;;;;;4.07;2.80;;;18.80;67.70;;;;;;5039902;28;20086;-74
2022/06/11 07:25:00;;;;;;;4.72;3.08;;;19.00;67.40;;;;;;5011632;28;20033;-74
2022/06/11 07:27:27;;;;;;;7.40;3.53;;;19.10;67.20;;;;;;5011238;28;20607;-74
2022/06/11 07:30:08;;;;;;;5.38;3.45;;;19.20;66.90;;;;;;5005254;28;20171;-74
2022/06/11 07:32:35;;;;;;;7.10;3.60;;;19.30;66.50;;;;;;5012902;28;20022;-74
2022/06/11 07:35:05;;;;;;;5.68;3.42;;;19.40;66.20;;;;;;5006335;28;20030;-74
2022/06/11 07:37:31;;;;;;;5.22;3.33;;;19.50;66.10;;;;;;5020616;28;20025;-74
2022/06/11 07:39:57;;;;;;;9.73;4.78;;;19.60;65.90;;;;;;5011224;28;20029;-74
2022/06/11 07:42:22;;;;;;;8.75;4.97;;;19.80;65.60;;;;;;4998954;28;20048;-74
2022/06/11 07:44:48;;;;;;;8.45;3.67;;;20.00;65.30;;;;;;4989481;28;20040;-73
2022/06/11 07:47:13;;;;;;;8.98;4.60;;;20.20;65.00;;;;;;5012206;28;20048;-74
2022/06/11 07:49:39;;;;;;;10.38;4.22;;;20.40;64.60;;;;;;5030058;28;20033;-74
2022/06/11 07:52:06;;;;;;;5.55;3.00;;;20.60;64.30;;;;;;5023256;28;20037;-74
2022/06/11 07:54:33;;;;;;;5.63;3.45;;;20.70;64.00;;;;;;5022556;28;20033;-74
2022/06/11 07:56:59;;;;;;;5.90;3.03;;;20.90;63.70;;;;;;5006421;28;20041;-74
2022/06/11 07:59:26;;;;;;;9.57;3.90;;;21.10;63.50;;;;;;5009843;28;20112;-75
2022/06/11 08:01:51;;;;;;;7.60;3.20;;;21.30;63.20;;;;;;5038511;28;20429;-74
2022/06/11 08:04:17;;;;;;;6.68;3.00;;;21.40;62.90;;;;;;5016946;28;20029;-74
2022/06/11 08:06:43;;;;;;;8.73;2.92;;;21.60;62.50;;;;;;5037440;28;20458;-74
2022/06/11 08:09:08;;;;;;;6.28;2.97;;;21.70;62.20;;;;;;5039833;28;20131;-74
2022/06/11 08:11:34;;;;;;;6.30;2.58;;;21.90;61.90;;;;;;5008692;28;20068;-74
2022/06/11 08:14:00;;;;;;;8.82;2.70;;;22.00;61.60;;;;;;5025910;28;20104;-75
2022/06/11 08:16:26;;;;;;;4.57;2.75;;;22.20;61.40;;;;;;5027156;28;20065;-74
2022/06/11 08:18:51;;;;;;;5.78;2.58;;;22.40;61.10;;;;;;4996495;28;20045;-74
2022/06/11 08:21:17;;;;;;;6.50;2.22;;;22.50;60.70;;;;;;5021258;28;20041;-74
2022/06/11 08:23:43;;;;;;;4.25;2.15;;;22.70;60.40;;;;;;5016108;28;20034;-75
2022/06/11 08:26:08;;;;;;;2.92;2.20;;;22.90;60.10;;;;;;5008134;28;20052;-74
2022/06/11 08:28:34;;;;;;;5.03;2.13;;;23.10;59.80;;;;;;5016600;28;20038;-74
2022/06/11 08:31:03;;;;;;;6.70;2.00;;;23.30;59.30;;;;;;5021798;28;20045;-75
2022/06/11 08:33:28;;;;;;;5.70;2.35;;;23.50;59.00;;;;;;5012497;28;20042;-74
2022/06/11 08:35:54;;;;;;;2.80;1.70;;;23.80;58.80;;;;;;5020530;28;20025;-75
2022/06/11 08:38:25;;;;;;;5.07;2.22;;;24.00;58.50;;;;;;5013012;28;20048;-77
2022/06/11 08:40:53;;;;;;;4.28;1.90;;;24.20;58.00;;;;;;5027145;28;20044;-75
2022/06/11 08:43:55;;;;;;;4.82;2.22;;;24.40;57.80;;;;;;4999500;28;20029;-76
2022/06/11 08:46:21;;;;;;;6.10;2.00;;;24.60;57.20;;;;;;4975897;28;20034;-76
2022/06/11 08:48:54;;;;;;;5.13;1.83;;;24.90;57.10;;;;;;4989072;28;20045;-75
2022/06/11 08:51:24;;;;;;;2.95;1.50;;;25.10;56.70;;;;;;4998573;28;20536;-76
2022/06/11 08:53:52;;;;;;;3.47;1.63;;;25.30;56.40;;;;;;5020078;28;20041;-76
2022/06/11 08:56:42;;;;;;;4.47;1.55;;;25.50;56.00;;;;;;5005533;28;20043;-76
2022/06/11 08:59:18;;;;;;;3.20;1.65;;;25.70;55.20;;;;;;5003136;28;20033;-77
2022/06/11 09:02:15;;;;;;;2.60;1.38;;;26.00;55.20;;;;;;4981974;28;20064;-76
2022/06/11 09:04:41;;;;;;;4.38;1.70;;;26.20;54.60;;;;;;4990013;28;20100;-74
2022/06/11 09:07:29;;;;;;;5.53;2.17;;;26.50;54.50;;;;;;5013040;28;20120;-76
2022/06/11 09:10:16;;;;;;;2.80;1.73;;;26.70;54.00;;;;;;5003957;28;20679;-79
2022/06/11 09:13:13;;;;;;;3.28;1.10;;;27.00;52.80;;;;;;5018107;28;20033;-76
2022/06/11 09:15:50;;;;;;;3.03;1.33;;;27.20;52.00;;;;;;4994187;28;20025;-78
2022/06/11 09:18:54;;;;;;;2.67;1.20;;;27.40;52.40;;;;;;5017346;28;20025;-76
2022/06/11 09:21:47;;;;;;;2.97;1.00;;;27.50;50.40;;;;;;5015554;28;20038;-76
2022/06/11 09:24:25;;;;;;;2.30;1.02;;;27.80;50.30;;;;;;5031883;28;20098;-77
2022/06/11 09:27:01;;;;;;;4.25;1.33;;;28.00;50.40;;;;;;4998807;28;20029;-76
2022/06/11 09:29:45;;;;;;;3.15;0.95;;;28.20;49.90;;;;;;4977510;28;20120;-76
2022/06/11 09:32:35;;;;;;;2.45;1.00;;;28.40;49.30;;;;;;5017376;28;20060;-77
2022/06/11 09:35:22;;;;;;;4.68;1.40;;;28.60;48.40;;;;;;4981791;28;20068;-76
2022/06/11 09:37:48;;;;;;;2.85;1.30;;;28.90;47.90;;;;;;5005181;28;20115;-76
2022/06/11 09:40:23;;;;;;;3.10;1.23;;;29.10;47.60;;;;;;5037812;28;20095;-76
2022/06/11 09:42:58;;;;;;;4.05;1.35;;;29.30;47.00;;;;;;5017246;28;20041;-75
2022/06/11 09:45:36;;;;;;;2.50;0.85;;;29.40;46.10;;;;;;4996131;28;20041;-75
2022/06/11 09:48:23;;;;;;;3.40;0.95;;;29.50;45.70;;;;;;5016610;28;20060;-75
2022/06/11 09:51:24;;;;;;;2.13;0.82;;;29.50;44.70;;;;;;4997999;28;20038;-75
2022/06/11 09:54:03;;;;;;;2.08;1.10;;;29.50;44.30;;;;;;4983225;28;20438;-76
2022/06/11 09:56:49;;;;;;;4.43;1.15;;;29.50;44.50;;;;;;4998054;28;20040;-76
2022/06/11 09:59:23;;;;;;;2.25;0.95;;;29.50;44.80;;;;;;4993200;28;20048;-74
2022/06/11 10:01:58;;;;;;;5.50;1.42;;;29.40;44.60;;;;;;4976449;28;20048;-77
2022/06/11 10:04:31;;;;;;;6.22;1.33;;;29.40;44.90;;;;;;4995413;28;20033;-76
2022/06/11 10:06:59;;;;;;;3.50;0.90;;;29.50;44.90;;;;;;5004453;28;20040;-75
2022/06/11 10:09:32;;;;;;;2.58;1.05;;;29.50;44.80;;;;;;4991408;28;20037;-76
2022/06/11 10:12:16;;;;;;;3.88;1.40;;;29.60;44.60;;;;;;5006450;28;20066;-76
2022/06/11 10:14:55;;;;;;;2.92;0.85;;;29.60;44.60;;;;;;5014292;28;20060;-75
2022/06/11 10:17:27;;;;;;;2.53;1.30;;;29.60;44.00;;;;;;4982561;28;20619;-76
2022/06/11 10:20:13;;;;;;;4.47;1.40;;;29.70;44.20;;;;;;4985505;28;20120;-76
2022/06/11 10:23:05;;;;;;;0.88;0.75;;;29.70;43.90;;;;;;5004890;28;20053;-77
2022/06/11 10:25:38;;;;;;;3.30;1.15;;;29.80;43.30;;;;;;5037166;28;20106;-77
2022/06/11 10:28:14;;;;;;;1.70;0.88;;;29.90;43.40;;;;;;4983791;28;20041;-77
2022/06/11 10:30:40;;;;;;;1.83;0.70;;;29.90;43.20;;;;;;4998122;28;20092;-76
2022/06/11 10:33:10;;;;;;;1.60;1.00;;;29.90;43.30;;;;;;5005093;28;20778;-76
2022/06/11 10:35:51;;;;;;;3.35;1.33;;;30.00;43.10;;;;;;4982481;28;20742;-77
2022/06/11 10:38:28;;;;;;;3.47;1.20;;;30.10;43.00;;;;;;4993143;28;20049;-76
2022/06/11 10:40:54;;;;;;;7.72;2.33;;;30.20;42.30;;;;;;5021118;28;20037;-76
2022/06/11 10:43:40;;;;;;;3.15;1.42;;;30.40;42.70;;;;;;5007182;28;20087;-76
2022/06/11 10:46:14;;;;;;;11.02;1.27;;;30.60;41.60;;;;;;5038924;28;20033;-77
2022/06/11 10:48:40;;;;;;;4.60;1.08;;;30.80;41.80;;;;;;5019254;28;20033;-78
2022/06/11 10:51:13;;;;;;;1.73;0.80;;;31.00;41.90;;;;;;5037560;28;20578;-77
2022/06/11 10:53:58;;;;;;;3.67;0.95;;;31.10;41.20;;;;;;5024921;28;20041;-76
2022/06/11 10:56:37;;;;;;;3.10;1.30;;;31.30;40.30;;;;;;5038665;28;20048;-75
2022/06/11 10:59:23;;;;;;;3.17;1.10;;;31.50;40.40;;;;;;4998151;28;20033;-76
2022/06/11 11:01:59;;;;;;;2.90;0.95;;;31.70;40.50;;;;;;5010018;28;20061;-75
2022/06/11 11:04:42;;;;;;;2.83;1.00;;;31.90;40.00;;;;;;4980216;28;20051;-75
2022/06/11 11:07:16;;;;;;;2.75;0.90;;;32.00;39.10;;;;;;5025340;28;20033;-75
2022/06/11 11:09:42;;;;;;;1.40;0.82;;;32.20;39.40;;;;;;4988269;28;20548;-75
2022/06/11 11:12:21;;;;;;;5.32;0.98;;;32.30;39.60;;;;;;5006232;28;20041;-75
2022/06/11 11:14:55;;;;;;;3.25;0.75;;;32.40;38.90;;;;;;5021089;28;20038;-73
2022/06/11 11:17:22;;;;;;;2.30;0.82;;;32.40;39.00;;;;;;5002732;28;20041;-74
2022/06/11 11:22:38;;;;;;;1.80;0.70;;;32.40;38.50;;;;;;5009684;28;20092;-75
2022/06/11 11:25:06;;;;;;;1.38;0.75;;;32.40;38.60;;;;;;5018747;28;20038;-74
2022/06/11 11:27:40;;;;;;;1.73;0.80;;;32.40;38.50;;;;;;5016789;28;20037;-74
2022/06/11 11:30:14;;;;;;;4.03;1.00;;;32.40;38.50;;;;;;5002506;28;20045;-75
2022/06/11 11:32:39;;;;;;;4.47;0.80;;;32.40;38.10;;;;;;4987459;28;20524;-73
2022/06/11 11:35:15;;;;;;;2.58;0.90;;;32.50;39.10;;;;;;4987572;28;20053;-74
2022/06/11 11:37:41;;;;;;;4.72;0.93;;;32.60;37.80;;;;;;4998535;28;20038;-74
2022/06/11 11:40:32;;;;;;;6.18;1.00;;;32.70;38.20;;;;;;4951689;28;20049;-74
2022/06/11 11:43:08;;;;;;;7.72;1.02;;;32.80;37.50;;;;;;4981600;28;20427;-76
2022/06/11 11:45:56;;;;;;;2.50;0.70;;;32.80;37.90;;;;;;4986714;28;20026;-75
2022/06/11 11:48:55;;;;;;;3.92;0.90;;;32.80;37.20;;;;;;4998130;28;20038;-75
2022/06/11 11:51:27;;;;;;;2.85;0.70;;;32.80;37.50;;;;;;4973125;28;20037;-75
2022/06/11 11:54:13;;;;;;;2.58;0.75;;;32.80;37.90;;;;;;4970857;28;20070;-75
2022/06/11 11:56:52;;;;;;;3.50;0.95;;;32.90;37.40;;;;;;4984968;28;20042;-75
2022/06/11 11:59:47;;;;;;;2.85;0.70;;;32.90;37.70;;;;;;4998542;28;20033;-75
2022/06/11 12:02:24;;;;;;;2.42;0.80;;;32.80;36.70;;;;;;5002717;28;20038;-74
2022/06/11 12:04:56;;;;;;;4.00;1.00;;;32.90;36.90;;;;;;4962583;28;20025;-75
2022/06/11 12:07:42;;;;;;;1.33;0.60;;;33.00;37.00;;;;;;4985943;28;20042;-75
2022/06/11 12:10:27;;;;;;;1.75;0.75;;;33.10;36.50;;;;;;4979477;28;20038;-76
2022/06/11 12:12:53;;;;;;;3.90;0.80;;;33.20;37.00;;;;;;4988669;28;20047;-75
2022/06/11 12:15:30;;;;;;;1.58;0.90;;;33.40;36.90;;;;;;4963739;28;20062;-76
2022/06/11 12:18:11;;;;;;;2.60;0.70;;;33.60;36.60;;;;;;4981345;28;20073;-76
2022/06/11 12:20:41;;;;;;;5.78;1.20;;;33.70;35.80;;;;;;4944735;28;20530;-77
2022/06/11 12:23:35;;;;;;;1.42;0.70;;;33.80;36.10;;;;;;4998176;28;20600;-78
2022/06/11 12:26:16;;;;;;;1.30;0.70;;;33.80;35.40;;;;;;4959500;28;20034;-74
2022/06/11 12:28:53;;;;;;;1.90;0.70;;;33.80;35.30;;;;;;4969897;28;20049;-75
2022/06/11 12:31:18;;;;;;;5.50;0.80;;;33.70;35.40;;;;;;4989844;28;20036;-74
2022/06/11 12:33:45;;;;;;;1.38;0.60;;;33.70;35.60;;;;;;5017979;28;20053;-75
2022/06/11 12:36:15;;;;;;;1.73;0.50;;;33.70;35.50;;;;;;5018955;28;20041;-74
2022/06/11 12:39:05;;;;;;;3.20;0.90;;;33.80;35.40;;;;;;5034845;28;20083;-75
2022/06/11 12:41:51;;;;;;;1.23;0.80;;;33.80;34.40;;;;;;5023404;28;20045;-74
2022/06/11 12:44:22;;;;;;;2.90;0.75;;;33.80;34.70;;;;;;5032975;28;20037;-74
2022/06/11 12:46:59;;;;;;;1.35;0.55;;;33.70;35.90;;;;;;5004401;28;20714;-75
2022/06/11 12:49:53;;;;;;;1.73;0.60;;;33.70;34.90;;;;;;5014690;28;20033;-75
2022/06/11 12:52:31;;;;;;;0.82;0.60;;;33.70;35.10;;;;;;5019430;28;20033;-75
2022/06/11 12:55:08;;;;;;;3.50;1.02;;;33.70;35.00;;;;;;5022169;28;20893;-74
2022/06/11 12:57:49;;;;;;;1.42;0.43;;;33.80;34.20;;;;;;5020363;28;20536;-75
2022/06/11 13:00:37;;;;;;;1.10;0.50;;;33.80;34.70;;;;;;5002339;28;20058;-75
2022/06/11 13:03:30;;;;;;;0.90;0.50;;;33.80;33.60;;;;;;5004103;28;20042;-76
2022/06/11 13:06:09;;;;;;;1.58;0.52;;;33.90;34.40;;;;;;5034537;28;20116;-75
2022/06/11 13:08:46;;;;;;;1.15;0.52;;;33.90;34.50;;;;;;5009902;28;20034;-74
2022/06/11 13:11:37;;;;;;;5.65;1.60;;;33.90;34.30;;;;;;5004438;28;20091;-75
2022/06/11 13:14:22;;;;;;;3.70;1.70;;;33.80;33.60;;;;;;4999643;28;20041;-74
2022/06/11 13:16:51;;;;;;;2.17;0.85;;;33.70;34.40;;;;;;5002605;28;20034;-75
2022/06/11 13:19:49;;;;;;;3.10;0.90;;;33.60;34.30;;;;;;5022835;28;20099;-74